createdAt,value
2018-12-14T00:03:13.489Z,58.90
2018-12-14T00:08:18.242Z,58.90
2018-12-14T00:13:23.108Z,58.80
2018-12-14T00:18:27.630Z,58.80
2018-12-14T00:23:31.759Z,58.80
2018-12-14T00:28:36.215Z,58.80
2018-12-14T00:33:40.086Z,58.70
2018-12-14T00:38:43.968Z,58.70
2018-12-14T00:43:48.474Z,58.70
2018-12-14T00:48:52.771Z,58.70
2018-12-14T00:53:56.939Z,58.70
2018-12-14T00:59:01.044Z,58.60
2018-12-14T01:04:05.155Z,58.60
2018-12-14T01:20:04.975Z,58.60
2018-12-14T01:25:08.598Z,58.60
2018-12-14T01:30:13.163Z,58.60
2018-12-14T01:35:17.980Z,58.60
2018-12-14T01:40:22.070Z,58.60
2018-12-14T01:45:26.215Z,58.60
2018-12-14T01:50:43.048Z,58.70
2018-12-14T01:55:47.371Z,58.70
2018-12-14T02:00:52.384Z,58.60
2018-12-14T02:05:56.019Z,58.70
2018-12-14T02:11:00.887Z,58.80
2018-12-14T02:16:12.202Z,58.80
2018-12-14T02:21:16.599Z,58.70
2018-12-14T02:26:20.920Z,58.80
2018-12-14T02:31:25.917Z,58.80
2018-12-14T02:36:29.816Z,58.80
2018-12-14T02:41:34.248Z,58.80
2018-12-14T02:52:17.638Z,58.80
2018-12-14T02:57:21.311Z,58.80
2018-12-14T03:02:28.995Z,58.80
2018-12-14T03:07:33.017Z,58.90
2018-12-14T03:12:37.182Z,58.90
2018-12-14T03:34:03.882Z,58.90
2018-12-14T03:39:08.093Z,58.90
2018-12-14T03:44:12.697Z,58.90
2018-12-14T03:49:16.772Z,58.90
2018-12-14T03:54:22.135Z,58.90
2018-12-14T03:59:41.011Z,58.90
2018-12-14T04:04:45.017Z,58.90
2018-12-14T04:09:49.583Z,58.90
2018-12-14T04:14:54.045Z,58.90
2018-12-14T04:19:58.215Z,58.90
2018-12-14T04:25:02.321Z,58.90
2018-12-14T04:30:07.136Z,59.00
2018-12-14T04:35:10.742Z,58.90
2018-12-14T04:40:14.858Z,58.90
2018-12-14T04:45:19.054Z,58.90
2018-12-14T04:50:23.185Z,58.90
2018-12-14T05:01:04.875Z,58.90
2018-12-14T05:06:09.605Z,58.90
2018-12-14T05:22:09.334Z,58.90
2018-12-14T05:27:13.263Z,58.90
2018-12-14T05:32:16.836Z,58.90
2018-12-14T05:37:21.416Z,58.90
2018-12-14T05:42:25.642Z,59.00
2018-12-14T05:47:29.803Z,59.00
2018-12-14T05:52:34.517Z,59.00
2018-12-14T05:57:38.036Z,58.90
2018-12-14T06:02:41.855Z,58.90
2018-12-14T06:07:46.042Z,59.00
2018-12-14T06:12:51.271Z,58.90
2018-12-14T06:17:55.033Z,59.00
2018-12-14T06:22:58.923Z,58.90
2018-12-14T06:28:03.311Z,59.00
2018-12-14T06:33:07.491Z,59.10
2018-12-14T06:38:11.950Z,59.00
2018-12-14T06:43:15.953Z,58.90
2018-12-14T06:48:22.570Z,59.00
2018-12-14T06:53:26.382Z,59.10
2018-12-14T06:58:30.322Z,59.00
2018-12-14T07:03:33.847Z,58.90
2018-12-14T07:08:37.710Z,58.90
2018-12-14T07:13:41.804Z,58.90
2018-12-14T07:18:45.508Z,58.90
2018-12-14T07:23:49.658Z,58.90
2018-12-14T07:28:53.849Z,58.90
2018-12-14T07:33:58.339Z,58.90
2018-12-14T07:39:04.200Z,58.90
2018-12-14T07:44:08.094Z,58.90
2018-12-14T07:49:12.781Z,58.90
2018-12-14T08:00:01.796Z,59.00
2018-12-14T08:05:07.289Z,58.90
2018-12-14T08:10:11.941Z,59.00
2018-12-14T08:15:16.926Z,59.00
2018-12-14T08:20:21.524Z,59.00
2018-12-14T08:25:26.121Z,59.00
2018-12-14T08:30:30.924Z,59.40
2018-12-14T08:35:35.159Z,59.00
2018-12-14T08:40:38.984Z,59.00
2018-12-14T08:45:43.435Z,59.00
2018-12-14T08:50:47.662Z,58.90
2018-12-14T08:55:51.806Z,59.00
2018-12-14T09:00:56.675Z,58.90
2018-12-14T09:06:01.091Z,58.90
2018-12-14T09:11:05.620Z,58.90
2018-12-14T09:16:09.689Z,58.90
2018-12-14T09:21:13.384Z,58.90
2018-12-14T09:26:17.611Z,58.90
2018-12-14T09:31:26.031Z,58.90
2018-12-14T09:36:30.761Z,58.90
2018-12-14T09:41:35.225Z,58.90
2018-12-14T09:46:51.483Z,58.80
2018-12-14T09:51:55.540Z,58.70
2018-12-14T09:57:00.000Z,58.80
2018-12-14T10:02:05.307Z,58.70
2018-12-14T10:07:09.869Z,58.70
2018-12-14T10:12:14.341Z,58.60
2018-12-14T10:17:18.724Z,58.70
2018-12-14T10:28:01.414Z,58.60
2018-12-14T10:33:17.690Z,58.70
2018-12-14T10:38:22.652Z,58.60
2018-12-14T10:43:26.881Z,58.70
2018-12-14T10:48:31.271Z,58.70
2018-12-14T10:53:35.089Z,58.80
2018-12-14T10:58:41.063Z,58.80
2018-12-14T11:14:47.063Z,58.80
2018-12-14T11:19:51.517Z,58.80
2018-12-14T11:24:56.354Z,59.40
2018-12-14T11:29:59.900Z,59.40
2018-12-14T11:35:05.080Z,58.90
2018-12-14T11:40:09.384Z,58.80
2018-12-14T11:45:13.189Z,58.80
2018-12-14T11:50:17.845Z,58.80
2018-12-14T11:55:22.979Z,58.80
2018-12-14T12:00:27.466Z,58.80
2018-12-14T12:05:32.342Z,58.80
2018-12-14T12:10:36.226Z,58.80
2018-12-14T12:15:40.186Z,58.80
2018-12-14T12:20:43.704Z,58.80
2018-12-14T12:25:47.344Z,58.80
2018-12-14T12:30:51.558Z,58.80
2018-12-14T12:35:55.841Z,58.80
2018-12-14T12:40:59.548Z,58.80
2018-12-14T12:46:03.548Z,58.80
2018-12-14T12:51:07.437Z,58.80
2018-12-14T12:56:11.395Z,58.80
2018-12-14T13:01:15.197Z,58.80
2018-12-14T13:06:20.108Z,58.80
2018-12-14T13:11:24.574Z,58.70
2018-12-14T13:16:29.165Z,58.60
2018-12-14T13:21:33.330Z,58.70
2018-12-14T13:26:37.078Z,58.60
2018-12-14T13:31:41.051Z,58.60
2018-12-14T13:36:46.255Z,58.60
2018-12-14T13:41:50.652Z,58.60
2018-12-14T13:46:54.678Z,58.50
2018-12-14T13:51:58.994Z,58.60
2018-12-14T13:57:02.606Z,59.10
2018-12-14T14:02:06.793Z,58.50
2018-12-14T14:13:02.912Z,58.50
2018-12-14T14:18:07.380Z,58.40
2018-12-14T14:23:11.403Z,58.50
2018-12-14T14:28:15.499Z,58.50
2018-12-14T14:33:19.231Z,58.40
2018-12-14T14:38:23.703Z,58.40
2018-12-14T14:43:28.390Z,58.40
2018-12-14T14:48:32.654Z,58.40
2018-12-14T14:53:36.841Z,58.40
2018-12-14T14:58:40.888Z,58.50
2018-12-14T15:03:44.448Z,58.40
2018-12-14T15:14:23.475Z,58.80
2018-12-14T15:19:27.386Z,58.40
2018-12-14T15:24:31.178Z,58.40
2018-12-14T15:29:35.723Z,58.30
2018-12-14T15:34:39.274Z,58.30
2018-12-14T15:39:43.400Z,58.30
2018-12-14T15:44:47.209Z,58.30
2018-12-14T15:49:57.469Z,58.30
2018-12-14T15:55:01.293Z,58.30
2018-12-14T16:00:06.111Z,58.30
2018-12-14T16:05:10.508Z,58.30
2018-12-14T16:10:14.514Z,58.30
2018-12-14T16:15:20.374Z,58.30
2018-12-14T16:20:24.275Z,58.20
2018-12-14T16:25:27.908Z,58.80
2018-12-14T16:30:31.875Z,58.20
2018-12-14T16:35:35.521Z,58.20
2018-12-14T16:40:39.044Z,58.30
2018-12-14T16:45:48.760Z,58.30
2018-12-14T16:50:54.553Z,58.30
2018-12-14T16:55:58.136Z,58.30
2018-12-14T17:01:02.781Z,58.40
2018-12-14T17:06:07.585Z,58.40
2018-12-14T17:11:11.863Z,58.40
2018-12-14T17:16:16.014Z,58.40
2018-12-14T17:21:19.699Z,58.30
2018-12-14T17:26:25.172Z,58.40
2018-12-14T17:31:29.120Z,58.40
2018-12-14T17:36:32.808Z,58.30
2018-12-14T17:41:36.640Z,58.20
2018-12-14T17:46:40.450Z,58.20
2018-12-14T17:51:44.476Z,58.30
2018-12-14T17:56:48.810Z,58.20
2018-12-14T18:01:52.521Z,58.20
2018-12-14T18:06:56.152Z,58.20
2018-12-14T18:12:00.801Z,58.20
2018-12-14T18:17:04.642Z,58.20
2018-12-14T18:22:08.310Z,58.20
2018-12-14T18:27:12.417Z,58.10
2018-12-14T18:32:15.925Z,58.10
2018-12-14T18:37:20.047Z,58.10
2018-12-14T18:42:23.702Z,58.00
2018-12-14T18:47:27.827Z,57.90
2018-12-14T18:52:31.454Z,57.90
2018-12-14T18:57:35.563Z,57.90
2018-12-14T19:02:39.664Z,57.90
2018-12-14T19:07:44.300Z,57.80
2018-12-14T19:12:47.833Z,57.80
2018-12-14T19:18:09.592Z,57.80
2018-12-14T19:23:19.403Z,57.70
2018-12-14T19:28:19.261Z,57.60
2018-12-14T19:38:58.985Z,57.50
2018-12-14T19:44:03.682Z,57.40
2018-12-14T19:49:07.522Z,57.30
2018-12-14T19:54:11.648Z,57.20
2018-12-14T19:59:15.389Z,57.20
2018-12-14T20:04:20.017Z,57.20
2018-12-14T20:09:23.937Z,57.10
2018-12-14T20:14:28.085Z,57.00
2018-12-14T20:30:29.487Z,56.90
2018-12-14T20:35:33.752Z,56.80
2018-12-14T20:40:37.308Z,56.90
2018-12-14T20:45:41.151Z,56.90
2018-12-14T20:50:44.778Z,56.80
2018-12-14T20:55:48.706Z,56.90
2018-12-14T21:00:52.223Z,56.90
2018-12-14T21:05:55.819Z,56.80
2018-12-14T21:10:59.426Z,56.70
2018-12-14T21:16:03.825Z,56.70
2018-12-14T21:21:08.032Z,56.70
2018-12-14T21:26:11.718Z,56.80
2018-12-14T21:31:15.307Z,56.70
2018-12-14T21:36:19.782Z,56.60
2018-12-14T21:41:23.534Z,56.60
2018-12-14T21:46:32.546Z,56.50
2018-12-14T21:51:33.223Z,56.50
2018-12-14T21:56:37.262Z,56.50
2018-12-14T22:01:41.055Z,56.50
2018-12-14T22:06:55.899Z,56.50
2018-12-14T22:11:59.795Z,56.50
2018-12-14T22:17:04.623Z,56.40
2018-12-14T22:22:08.550Z,56.40
2018-12-14T22:27:12.067Z,57.10
2018-12-14T22:32:15.964Z,57.00
2018-12-14T22:37:19.497Z,56.50
2018-12-14T22:42:23.248Z,56.40
2018-12-14T22:47:27.138Z,56.40
2018-12-14T22:52:30.832Z,56.50
2018-12-14T22:57:34.439Z,56.40
2018-12-14T23:02:38.520Z,56.40
2018-12-14T23:07:42.179Z,56.20
2018-12-14T23:12:46.555Z,56.20
2018-12-14T23:17:50.528Z,56.20
2018-12-14T23:28:41.905Z,56.10
2018-12-14T23:33:46.120Z,56.00
2018-12-14T23:38:50.504Z,56.60
2018-12-14T23:43:54.641Z,55.90
2018-12-14T23:48:58.595Z,55.90
2018-12-14T23:54:03.017Z,55.80
2018-12-14T23:59:06.845Z,55.80
